sensor_id;sensor_type;location;lat;lon;timestamp;P1;durP1;ratioP1;P2;durP2;ratioP2
67185;SDS011;54116;53.518;49.398;2023-05-01T00:01:34;13.38;;;4.20;;
67185;SDS011;54116;53.518;49.398;2023-05-01T00:04:01;9.95;;;3.75;;
67185;SDS011;54116;53.518;49.398;2023-05-01T00:06:27;8.07;;;4.03;;
67185;SDS011;54116;53.518;49.398;2023-05-01T00:08:54;14.80;;;4.10;;
67185;SDS011;54116;53.518;49.398;2023-05-01T00:11:20;14.40;;;3.97;;
67185;SDS011;54116;53.518;49.398;2023-05-01T00:13:47;12.57;;;4.00;;
67185;SDS011;54116;53.518;49.398;2023-05-01T00:16:13;11.80;;;3.95;;
67185;SDS011;54116;53.518;49.398;2023-05-01T00:18:41;8.75;;;4.25;;
67185;SDS011;54116;53.518;49.398;2023-05-01T00:21:08;11.25;;;3.95;;
67185;SDS011;54116;53.518;49.398;2023-05-01T00:23:34;11.48;;;4.07;;
67185;SDS011;54116;53.518;49.398;2023-05-01T00:26:00;14.65;;;4.43;;
67185;SDS011;54116;53.518;49.398;2023-05-01T00:28:27;11.68;;;3.97;;
67185;SDS011;54116;53.518;49.398;2023-05-01T00:30:53;12.13;;;3.90;;
67185;SDS011;54116;53.518;49.398;2023-05-01T00:33:20;13.68;;;4.30;;
67185;SDS011;54116;53.518;49.398;2023-05-01T00:35:46;13.75;;;4.18;;
67185;SDS011;54116;53.518;49.398;2023-05-01T00:38:12;11.77;;;4.60;;
67185;SDS011;54116;53.518;49.398;2023-05-01T00:40:44;13.20;;;4.15;;
67185;SDS011;54116;53.518;49.398;2023-05-01T00:43:12;12.82;;;4.22;;
67185;SDS011;54116;53.518;49.398;2023-05-01T00:45:39;16.63;;;4.75;;
67185;SDS011;54116;53.518;49.398;2023-05-01T00:48:09;12.82;;;4.25;;
67185;SDS011;54116;53.518;49.398;2023-05-01T00:50:36;10.45;;;4.53;;
67185;SDS011;54116;53.518;49.398;2023-05-01T00:53:02;14.00;;;4.40;;
67185;SDS011;54116;53.518;49.398;2023-05-01T00:55:29;14.73;;;5.35;;
67185;SDS011;54116;53.518;49.398;2023-05-01T00:57:56;11.27;;;4.57;;
67185;SDS011;54116;53.518;49.398;2023-05-01T01:00:23;12.52;;;5.07;;
67185;SDS011;54116;53.518;49.398;2023-05-01T01:02:50;14.07;;;4.85;;
67185;SDS011;54116;53.518;49.398;2023-05-01T01:05:16;12.50;;;4.57;;
67185;SDS011;54116;53.518;49.398;2023-05-01T01:07:48;14.98;;;5.03;;
67185;SDS011;54116;53.518;49.398;2023-05-01T01:13:27;11.95;;;4.72;;
67185;SDS011;54116;53.518;49.398;2023-05-01T01:16:11;13.70;;;5.07;;
67185;SDS011;54116;53.518;49.398;2023-05-01T01:18:47;9.90;;;4.78;;
67185;SDS011;54116;53.518;49.398;2023-05-01T01:21:22;18.48;;;5.47;;
67185;SDS011;54116;53.518;49.398;2023-05-01T01:32:33;12.38;;;5.45;;
67185;SDS011;54116;53.518;49.398;2023-05-01T01:35:07;13.50;;;5.57;;
67185;SDS011;54116;53.518;49.398;2023-05-01T01:42:44;18.08;;;5.53;;
67185;SDS011;54116;53.518;49.398;2023-05-01T01:45:24;13.15;;;5.55;;
67185;SDS011;54116;53.518;49.398;2023-05-01T01:48:15;11.50;;;5.15;;
67185;SDS011;54116;53.518;49.398;2023-05-01T01:50:44;11.05;;;5.38;;
67185;SDS011;54116;53.518;49.398;2023-05-01T01:53:16;14.40;;;5.45;;
67185;SDS011;54116;53.518;49.398;2023-05-01T01:55:44;12.15;;;5.32;;
67185;SDS011;54116;53.518;49.398;2023-05-01T01:58:13;11.95;;;5.18;;
67185;SDS011;54116;53.518;49.398;2023-05-01T02:00:43;16.98;;;5.15;;
67185;SDS011;54116;53.518;49.398;2023-05-01T02:03:10;12.98;;;5.82;;
67185;SDS011;54116;53.518;49.398;2023-05-01T02:05:38;12.93;;;5.28;;
67185;SDS011;54116;53.518;49.398;2023-05-01T02:08:07;10.40;;;4.95;;
67185;SDS011;54116;53.518;49.398;2023-05-01T02:10:35;14.02;;;5.47;;
67185;SDS011;54116;53.518;49.398;2023-05-01T02:13:04;11.43;;;5.35;;
67185;SDS011;54116;53.518;49.398;2023-05-01T02:15:31;12.38;;;5.30;;
67185;SDS011;54116;53.518;49.398;2023-05-01T02:18:01;15.00;;;5.80;;
67185;SDS011;54116;53.518;49.398;2023-05-01T02:20:32;11.25;;;5.63;;
67185;SDS011;54116;53.518;49.398;2023-05-01T02:22:59;11.93;;;5.47;;
67185;SDS011;54116;53.518;49.398;2023-05-01T02:25:28;13.07;;;5.47;;
67185;SDS011;54116;53.518;49.398;2023-05-01T02:27:59;12.10;;;5.40;;
67185;SDS011;54116;53.518;49.398;2023-05-01T02:30:28;15.95;;;5.25;;
67185;SDS011;54116;53.518;49.398;2023-05-01T02:32:55;13.98;;;5.60;;
67185;SDS011;54116;53.518;49.398;2023-05-01T02:35:22;11.00;;;5.40;;
67185;SDS011;54116;53.518;49.398;2023-05-01T02:37:49;12.77;;;5.80;;
67185;SDS011;54116;53.518;49.398;2023-05-01T02:40:16;14.35;;;5.32;;
67185;SDS011;54116;53.518;49.398;2023-05-01T02:42:43;14.98;;;5.50;;
67185;SDS011;54116;53.518;49.398;2023-05-01T02:45:16;12.00;;;5.22;;
67185;SDS011;54116;53.518;49.398;2023-05-01T02:47:44;10.80;;;5.55;;
67185;SDS011;54116;53.518;49.398;2023-05-01T02:50:14;14.23;;;5.35;;
67185;SDS011;54116;53.518;49.398;2023-05-01T02:52:42;12.25;;;5.45;;
67185;SDS011;54116;53.518;49.398;2023-05-01T02:55:09;10.90;;;4.88;;
67185;SDS011;54116;53.518;49.398;2023-05-01T02:57:36;13.43;;;4.90;;
67185;SDS011;54116;53.518;49.398;2023-05-01T03:00:02;14.13;;;5.68;;
67185;SDS011;54116;53.518;49.398;2023-05-01T03:02:29;12.60;;;5.00;;
67185;SDS011;54116;53.518;49.398;2023-05-01T03:04:56;16.48;;;5.65;;
67185;SDS011;54116;53.518;49.398;2023-05-01T03:07:23;15.07;;;5.65;;
67185;SDS011;54116;53.518;49.398;2023-05-01T03:09:49;13.32;;;5.55;;
67185;SDS011;54116;53.518;49.398;2023-05-01T03:12:15;11.80;;;5.13;;
67185;SDS011;54116;53.518;49.398;2023-05-01T03:14:41;12.93;;;5.28;;
67185;SDS011;54116;53.518;49.398;2023-05-01T03:17:08;13.70;;;5.38;;
67185;SDS011;54116;53.518;49.398;2023-05-01T03:19:34;21.80;;;5.32;;
67185;SDS011;54116;53.518;49.398;2023-05-01T03:22:02;13.18;;;5.63;;
67185;SDS011;54116;53.518;49.398;2023-05-01T03:24:28;13.73;;;5.38;;
67185;SDS011;54116;53.518;49.398;2023-05-01T03:26:54;13.80;;;6.43;;
67185;SDS011;54116;53.518;49.398;2023-05-01T03:29:21;14.07;;;5.70;;
67185;SDS011;54116;53.518;49.398;2023-05-01T03:31:47;12.43;;;5.82;;
67185;SDS011;54116;53.518;49.398;2023-05-01T03:34:13;13.15;;;5.30;;
67185;SDS011;54116;53.518;49.398;2023-05-01T03:36:40;16.83;;;6.35;;
67185;SDS011;54116;53.518;49.398;2023-05-01T03:39:06;12.95;;;6.53;;
67185;SDS011;54116;53.518;49.398;2023-05-01T03:41:33;11.70;;;5.63;;
67185;SDS011;54116;53.518;49.398;2023-05-01T03:43:59;12.35;;;5.75;;
67185;SDS011;54116;53.518;49.398;2023-05-01T03:46:26;14.73;;;6.50;;
67185;SDS011;54116;53.518;49.398;2023-05-01T03:48:53;11.73;;;5.80;;
67185;SDS011;54116;53.518;49.398;2023-05-01T03:51:19;12.27;;;5.93;;
67185;SDS011;54116;53.518;49.398;2023-05-01T03:53:45;14.02;;;6.07;;
67185;SDS011;54116;53.518;49.398;2023-05-01T03:56:12;13.63;;;6.43;;
67185;SDS011;54116;53.518;49.398;2023-05-01T03:58:38;11.55;;;5.93;;
67185;SDS011;54116;53.518;49.398;2023-05-01T04:01:04;13.70;;;6.22;;
67185;SDS011;54116;53.518;49.398;2023-05-01T04:03:31;20.05;;;6.20;;
67185;SDS011;54116;53.518;49.398;2023-05-01T04:05:57;12.50;;;5.88;;
67185;SDS011;54116;53.518;49.398;2023-05-01T04:08:24;18.42;;;7.32;;
67185;SDS011;54116;53.518;49.398;2023-05-01T04:10:50;19.83;;;6.35;;
67185;SDS011;54116;53.518;49.398;2023-05-01T04:13:16;13.38;;;6.50;;
67185;SDS011;54116;53.518;49.398;2023-05-01T04:15:43;12.68;;;6.40;;
67185;SDS011;54116;53.518;49.398;2023-05-01T04:18:11;13.13;;;6.50;;
67185;SDS011;54116;53.518;49.398;2023-05-01T04:20:37;10.90;;;6.03;;
67185;SDS011;54116;53.518;49.398;2023-05-01T04:23:04;13.48;;;6.32;;
67185;SDS011;54116;53.518;49.398;2023-05-01T04:25:31;14.48;;;6.53;;
67185;SDS011;54116;53.518;49.398;2023-05-01T04:27:57;13.15;;;6.25;;
67185;SDS011;54116;53.518;49.398;2023-05-01T04:30:23;13.73;;;6.10;;
67185;SDS011;54116;53.518;49.398;2023-05-01T04:32:49;15.95;;;6.50;;
67185;SDS011;54116;53.518;49.398;2023-05-01T04:35:16;13.65;;;6.10;;
67185;SDS011;54116;53.518;49.398;2023-05-01T04:37:42;13.65;;;5.97;;
67185;SDS011;54116;53.518;49.398;2023-05-01T04:40:08;19.35;;;7.30;;
67185;SDS011;54116;53.518;49.398;2023-05-01T04:42:35;14.52;;;6.43;;
67185;SDS011;54116;53.518;49.398;2023-05-01T04:45:21;13.85;;;6.38;;
67185;SDS011;54116;53.518;49.398;2023-05-01T04:47:47;12.18;;;6.07;;
67185;SDS011;54116;53.518;49.398;2023-05-01T04:50:13;13.07;;;6.20;;
67185;SDS011;54116;53.518;49.398;2023-05-01T04:52:58;11.40;;;6.20;;
67185;SDS011;54116;53.518;49.398;2023-05-01T04:58:10;18.25;;;6.50;;
67185;SDS011;54116;53.518;49.398;2023-05-01T05:00:54;15.10;;;6.55;;
67185;SDS011;54116;53.518;49.398;2023-05-01T05:03:21;11.98;;;6.20;;
67185;SDS011;54116;53.518;49.398;2023-05-01T05:05:47;12.93;;;6.30;;
67185;SDS011;54116;53.518;49.398;2023-05-01T05:08:32;13.85;;;6.28;;
67185;SDS011;54116;53.518;49.398;2023-05-01T05:10:59;14.70;;;6.78;;
67185;SDS011;54116;53.518;49.398;2023-05-01T05:13:26;16.70;;;7.22;;
67185;SDS011;54116;53.518;49.398;2023-05-01T05:15:52;16.00;;;6.47;;
67185;SDS011;54116;53.518;49.398;2023-05-01T05:18:19;13.50;;;6.03;;
67185;SDS011;54116;53.518;49.398;2023-05-01T05:20:45;14.80;;;6.22;;
67185;SDS011;54116;53.518;49.398;2023-05-01T05:23:11;16.25;;;5.90;;
67185;SDS011;54116;53.518;49.398;2023-05-01T05:29:00;12.80;;;6.10;;
67185;SDS011;54116;53.518;49.398;2023-05-01T05:31:27;13.77;;;5.95;;
67185;SDS011;54116;53.518;49.398;2023-05-01T05:33:53;14.20;;;6.30;;
67185;SDS011;54116;53.518;49.398;2023-05-01T05:36:21;10.80;;;5.80;;
67185;SDS011;54116;53.518;49.398;2023-05-01T05:38:47;12.35;;;6.60;;
67185;SDS011;54116;53.518;49.398;2023-05-01T05:41:13;12.20;;;5.82;;
67185;SDS011;54116;53.518;49.398;2023-05-01T05:43:40;16.27;;;5.85;;
67185;SDS011;54116;53.518;49.398;2023-05-01T05:46:07;11.98;;;6.00;;
67185;SDS011;54116;53.518;49.398;2023-05-01T05:48:33;9.93;;;5.80;;
67185;SDS011;54116;53.518;49.398;2023-05-01T05:50:59;12.32;;;5.63;;
67185;SDS011;54116;53.518;49.398;2023-05-01T05:53:26;12.88;;;5.70;;
67185;SDS011;54116;53.518;49.398;2023-05-01T05:55:52;17.08;;;6.22;;
67185;SDS011;54116;53.518;49.398;2023-05-01T05:58:18;11.32;;;6.43;;
67185;SDS011;54116;53.518;49.398;2023-05-01T06:00:46;14.68;;;6.47;;
67185;SDS011;54116;53.518;49.398;2023-05-01T06:05:58;12.85;;;5.80;;
67185;SDS011;54116;53.518;49.398;2023-05-01T06:08:24;13.13;;;6.15;;
67185;SDS011;54116;53.518;49.398;2023-05-01T06:10:50;9.98;;;5.38;;
67185;SDS011;54116;53.518;49.398;2023-05-01T06:13:17;14.88;;;5.95;;
67185;SDS011;54116;53.518;49.398;2023-05-01T06:15:48;10.73;;;6.13;;
67185;SDS011;54116;53.518;49.398;2023-05-01T06:18:15;14.88;;;5.80;;
67185;SDS011;54116;53.518;49.398;2023-05-01T06:20:41;16.95;;;5.75;;
67185;SDS011;54116;53.518;49.398;2023-05-01T06:23:07;16.48;;;5.80;;
67185;SDS011;54116;53.518;49.398;2023-05-01T06:25:34;11.52;;;5.60;;
67185;SDS011;54116;53.518;49.398;2023-05-01T06:28:02;10.98;;;4.82;;
67185;SDS011;54116;53.518;49.398;2023-05-01T06:30:29;15.63;;;5.72;;
67185;SDS011;54116;53.518;49.398;2023-05-01T06:32:55;13.68;;;5.53;;
67185;SDS011;54116;53.518;49.398;2023-05-01T06:35:21;13.18;;;5.32;;
67185;SDS011;54116;53.518;49.398;2023-05-01T06:37:48;14.48;;;5.95;;
67185;SDS011;54116;53.518;49.398;2023-05-01T06:40:14;12.82;;;5.47;;
67185;SDS011;54116;53.518;49.398;2023-05-01T06:42:40;17.55;;;5.70;;
67185;SDS011;54116;53.518;49.398;2023-05-01T06:45:07;17.75;;;6.13;;
67185;SDS011;54116;53.518;49.398;2023-05-01T06:47:34;13.65;;;5.78;;
67185;SDS011;54116;53.518;49.398;2023-05-01T06:50:01;12.18;;;5.60;;
67185;SDS011;54116;53.518;49.398;2023-05-01T06:52:29;19.50;;;7.38;;
67185;SDS011;54116;53.518;49.398;2023-05-01T06:54:55;12.75;;;5.55;;
67185;SDS011;54116;53.518;49.398;2023-05-01T06:57:40;14.50;;;5.75;;
67185;SDS011;54116;53.518;49.398;2023-05-01T07:00:07;16.83;;;6.78;;
67185;SDS011;54116;53.518;49.398;2023-05-01T07:05:20;14.02;;;5.72;;
67185;SDS011;54116;53.518;49.398;2023-05-01T07:07:47;15.80;;;5.68;;
67185;SDS011;54116;53.518;49.398;2023-05-01T07:10:14;12.10;;;5.60;;
67185;SDS011;54116;53.518;49.398;2023-05-01T07:12:40;14.27;;;5.20;;
67185;SDS011;54116;53.518;49.398;2023-05-01T07:15:06;15.02;;;5.57;;
67185;SDS011;54116;53.518;49.398;2023-05-01T07:17:33;13.45;;;5.07;;
67185;SDS011;54116;53.518;49.398;2023-05-01T07:19:59;12.60;;;5.50;;
67185;SDS011;54116;53.518;49.398;2023-05-01T07:22:44;11.00;;;5.55;;
67185;SDS011;54116;53.518;49.398;2023-05-01T07:25:10;13.73;;;5.30;;
67185;SDS011;54116;53.518;49.398;2023-05-01T07:27:55;14.57;;;5.43;;
67185;SDS011;54116;53.518;49.398;2023-05-01T07:30:21;11.18;;;5.15;;
67185;SDS011;54116;53.518;49.398;2023-05-01T07:32:47;11.48;;;4.90;;
67185;SDS011;54116;53.518;49.398;2023-05-01T07:35:13;14.68;;;5.35;;
67185;SDS011;54116;53.518;49.398;2023-05-01T07:37:39;12.35;;;5.97;;
67185;SDS011;54116;53.518;49.398;2023-05-01T07:40:06;13.98;;;5.32;;
67185;SDS011;54116;53.518;49.398;2023-05-01T07:42:32;11.00;;;5.03;;
67185;SDS011;54116;53.518;49.398;2023-05-01T07:44:58;14.75;;;5.28;;
67185;SDS011;54116;53.518;49.398;2023-05-01T07:47:25;13.68;;;5.03;;
67185;SDS011;54116;53.518;49.398;2023-05-01T07:49:52;14.10;;;5.00;;
67185;SDS011;54116;53.518;49.398;2023-05-01T07:52:18;10.32;;;4.45;;
67185;SDS011;54116;53.518;49.398;2023-05-01T07:54:48;14.25;;;5.03;;
67185;SDS011;54116;53.518;49.398;2023-05-01T07:57:16;14.20;;;5.03;;
67185;SDS011;54116;53.518;49.398;2023-05-01T07:59:43;21.70;;;10.48;;
67185;SDS011;54116;53.518;49.398;2023-05-01T08:02:15;11.60;;;5.35;;
67185;SDS011;54116;53.518;49.398;2023-05-01T08:04:42;13.63;;;4.80;;
67185;SDS011;54116;53.518;49.398;2023-05-01T08:07:08;11.98;;;5.13;;
67185;SDS011;54116;53.518;49.398;2023-05-01T08:09:34;31.92;;;6.68;;
67185;SDS011;54116;53.518;49.398;2023-05-01T08:12:00;15.50;;;5.00;;
67185;SDS011;54116;53.518;49.398;2023-05-01T08:14:28;11.35;;;5.20;;
67185;SDS011;54116;53.518;49.398;2023-05-01T08:16:54;17.45;;;6.97;;
67185;SDS011;54116;53.518;49.398;2023-05-01T08:19:22;20.65;;;6.78;;
67185;SDS011;54116;53.518;49.398;2023-05-01T08:21:48;15.57;;;5.70;;
67185;SDS011;54116;53.518;49.398;2023-05-01T08:24:14;14.05;;;5.18;;
67185;SDS011;54116;53.518;49.398;2023-05-01T08:26:40;11.98;;;4.85;;
67185;SDS011;54116;53.518;49.398;2023-05-01T08:29:06;15.38;;;5.28;;
67185;SDS011;54116;53.518;49.398;2023-05-01T08:31:33;11.57;;;4.30;;
67185;SDS011;54116;53.518;49.398;2023-05-01T08:34:02;14.90;;;5.40;;
67185;SDS011;54116;53.518;49.398;2023-05-01T08:36:28;12.55;;;4.90;;
67185;SDS011;54116;53.518;49.398;2023-05-01T08:38:57;12.02;;;4.70;;
67185;SDS011;54116;53.518;49.398;2023-05-01T08:41:23;17.13;;;5.60;;
67185;SDS011;54116;53.518;49.398;2023-05-01T08:43:52;24.05;;;6.13;;
67185;SDS011;54116;53.518;49.398;2023-05-01T08:46:31;16.10;;;4.82;;
67185;SDS011;54116;53.518;49.398;2023-05-01T08:48:58;13.93;;;4.80;;
67185;SDS011;54116;53.518;49.398;2023-05-01T08:51:25;15.32;;;5.00;;
67185;SDS011;54116;53.518;49.398;2023-05-01T08:53:54;11.45;;;4.63;;
67185;SDS011;54116;53.518;49.398;2023-05-01T08:56:22;12.27;;;4.25;;
67185;SDS011;54116;53.518;49.398;2023-05-01T08:58:50;14.90;;;5.00;;
67185;SDS011;54116;53.518;49.398;2023-05-01T09:01:19;15.65;;;5.38;;
67185;SDS011;54116;53.518;49.398;2023-05-01T09:03:48;13.57;;;5.50;;
67185;SDS011;54116;53.518;49.398;2023-05-01T09:06:17;22.73;;;5.22;;
67185;SDS011;54116;53.518;49.398;2023-05-01T09:08:44;14.80;;;5.63;;
67185;SDS011;54116;53.518;49.398;2023-05-01T09:11:10;12.82;;;5.93;;
67185;SDS011;54116;53.518;49.398;2023-05-01T09:13:37;14.10;;;5.15;;
67185;SDS011;54116;53.518;49.398;2023-05-01T09:16:04;13.70;;;4.53;;
67185;SDS011;54116;53.518;49.398;2023-05-01T09:18:31;16.02;;;5.57;;
67185;SDS011;54116;53.518;49.398;2023-05-01T09:20:59;15.88;;;4.88;;
67185;SDS011;54116;53.518;49.398;2023-05-01T09:26:10;13.02;;;4.20;;
67185;SDS011;54116;53.518;49.398;2023-05-01T09:28:46;13.95;;;4.22;;
67185;SDS011;54116;53.518;49.398;2023-05-01T09:31:23;11.57;;;4.35;;
67185;SDS011;54116;53.518;49.398;2023-05-01T09:34:07;18.73;;;3.97;;
67185;SDS011;54116;53.518;49.398;2023-05-01T09:36:35;15.57;;;4.55;;
67185;SDS011;54116;53.518;49.398;2023-05-01T09:39:02;11.32;;;4.20;;
67185;SDS011;54116;53.518;49.398;2023-05-01T09:41:28;13.82;;;4.75;;
67185;SDS011;54116;53.518;49.398;2023-05-01T09:46:48;10.15;;;3.92;;
67185;SDS011;54116;53.518;49.398;2023-05-01T09:49:16;20.25;;;4.57;;
67185;SDS011;54116;53.518;49.398;2023-05-01T09:52:10;11.82;;;4.53;;
67185;SDS011;54116;53.518;49.398;2023-05-01T09:54:37;12.45;;;4.22;;
67185;SDS011;54116;53.518;49.398;2023-05-01T09:57:03;14.38;;;4.30;;
67185;SDS011;54116;53.518;49.398;2023-05-01T09:59:30;13.75;;;3.95;;
67185;SDS011;54116;53.518;49.398;2023-05-01T10:01:58;33.90;;;5.15;;
67185;SDS011;54116;53.518;49.398;2023-05-01T10:04:28;18.35;;;4.40;;
67185;SDS011;54116;53.518;49.398;2023-05-01T10:07:11;15.05;;;4.32;;
67185;SDS011;54116;53.518;49.398;2023-05-01T10:09:38;10.38;;;3.92;;
67185;SDS011;54116;53.518;49.398;2023-05-01T10:12:05;11.82;;;3.83;;
67185;SDS011;54116;53.518;49.398;2023-05-01T10:14:31;14.50;;;4.15;;
67185;SDS011;54116;53.518;49.398;2023-05-01T10:17:18;12.77;;;4.22;;
67185;SDS011;54116;53.518;49.398;2023-05-01T10:19:44;12.98;;;3.40;;
67185;SDS011;54116;53.518;49.398;2023-05-01T10:22:13;12.82;;;3.45;;
67185;SDS011;54116;53.518;49.398;2023-05-01T10:27:25;14.18;;;3.97;;
67185;SDS011;54116;53.518;49.398;2023-05-01T10:29:52;14.27;;;3.95;;
67185;SDS011;54116;53.518;49.398;2023-05-01T10:32:19;22.50;;;3.72;;
67185;SDS011;54116;53.518;49.398;2023-05-01T10:34:47;13.80;;;3.55;;
67185;SDS011;54116;53.518;49.398;2023-05-01T10:38:07;12.48;;;3.40;;
67185;SDS011;54116;53.518;49.398;2023-05-01T10:45:50;12.65;;;3.10;;
67185;SDS011;54116;53.518;49.398;2023-05-01T10:51:06;17.25;;;3.55;;
67185;SDS011;54116;53.518;49.398;2023-05-01T10:59:03;11.13;;;2.92;;
67185;SDS011;54116;53.518;49.398;2023-05-01T11:01:37;12.68;;;3.03;;
67185;SDS011;54116;53.518;49.398;2023-05-01T11:09:39;10.68;;;3.40;;
67185;SDS011;54116;53.518;49.398;2023-05-01T11:12:06;8.85;;;2.58;;
67185;SDS011;54116;53.518;49.398;2023-05-01T11:20:06;13.60;;;2.70;;
67185;SDS011;54116;53.518;49.398;2023-05-01T11:22:43;10.35;;;2.70;;
67185;SDS011;54116;53.518;49.398;2023-05-01T11:25:16;12.48;;;2.70;;
67185;SDS011;54116;53.518;49.398;2023-05-01T11:27:51;10.13;;;3.20;;
67185;SDS011;54116;53.518;49.398;2023-05-01T11:30:21;11.73;;;3.92;;
67185;SDS011;54116;53.518;49.398;2023-05-01T11:32:48;20.60;;;3.20;;
67185;SDS011;54116;53.518;49.398;2023-05-01T11:37:48;13.75;;;3.58;;
67185;SDS011;54116;53.518;49.398;2023-05-01T11:40:23;20.27;;;3.72;;
67185;SDS011;54116;53.518;49.398;2023-05-01T11:43:01;45.65;;;4.93;;
67185;SDS011;54116;53.518;49.398;2023-05-01T11:45:28;22.08;;;3.47;;
67185;SDS011;54116;53.518;49.398;2023-05-01T11:48:15;13.63;;;3.38;;
67185;SDS011;54116;53.518;49.398;2023-05-01T11:50:41;13.65;;;3.92;;
67185;SDS011;54116;53.518;49.398;2023-05-01T11:53:26;12.82;;;2.90;;
67185;SDS011;54116;53.518;49.398;2023-05-01T11:55:53;15.40;;;3.92;;
67185;SDS011;54116;53.518;49.398;2023-05-01T11:58:29;15.95;;;3.40;;
67185;SDS011;54116;53.518;49.398;2023-05-01T12:00:56;13.30;;;3.65;;
67185;SDS011;54116;53.518;49.398;2023-05-01T12:03:23;14.45;;;3.55;;
67185;SDS011;54116;53.518;49.398;2023-05-01T12:05:49;12.32;;;3.47;;
67185;SDS011;54116;53.518;49.398;2023-05-01T12:08:18;19.40;;;4.53;;
67185;SDS011;54116;53.518;49.398;2023-05-01T12:10:49;23.92;;;4.72;;
67185;SDS011;54116;53.518;49.398;2023-05-01T12:16:12;44.90;;;5.20;;
67185;SDS011;54116;53.518;49.398;2023-05-01T12:18:39;18.63;;;3.42;;
67185;SDS011;54116;53.518;49.398;2023-05-01T12:21:07;16.55;;;3.97;;
67185;SDS011;54116;53.518;49.398;2023-05-01T12:23:40;16.85;;;3.83;;
67185;SDS011;54116;53.518;49.398;2023-05-01T12:26:19;15.48;;;3.65;;
67185;SDS011;54116;53.518;49.398;2023-05-01T12:28:56;14.13;;;4.15;;
67185;SDS011;54116;53.518;49.398;2023-05-01T12:31:27;14.70;;;4.57;;
67185;SDS011;54116;53.518;49.398;2023-05-01T12:36:28;15.93;;;3.60;;
67185;SDS011;54116;53.518;49.398;2023-05-01T12:38:57;18.88;;;4.43;;
67185;SDS011;54116;53.518;49.398;2023-05-01T12:41:39;22.27;;;4.03;;
67185;SDS011;54116;53.518;49.398;2023-05-01T12:46:59;15.43;;;3.38;;
67185;SDS011;54116;53.518;49.398;2023-05-01T12:49:29;22.13;;;3.63;;
67185;SDS011;54116;53.518;49.398;2023-05-01T12:51:57;17.75;;;3.75;;
67185;SDS011;54116;53.518;49.398;2023-05-01T12:54:29;18.67;;;4.15;;
67185;SDS011;54116;53.518;49.398;2023-05-01T12:57:06;25.60;;;3.55;;
67185;SDS011;54116;53.518;49.398;2023-05-01T12:59:34;19.38;;;3.83;;
67185;SDS011;54116;53.518;49.398;2023-05-01T13:04:29;19.55;;;3.08;;
67185;SDS011;54116;53.518;49.398;2023-05-01T13:06:56;25.42;;;7.25;;
67185;SDS011;54116;53.518;49.398;2023-05-01T13:09:23;21.25;;;3.95;;
67185;SDS011;54116;53.518;49.398;2023-05-01T13:12:12;15.50;;;4.03;;
67185;SDS011;54116;53.518;49.398;2023-05-01T13:14:56;16.02;;;3.40;;
67185;SDS011;54116;53.518;49.398;2023-05-01T13:17:26;15.73;;;3.53;;
67185;SDS011;54116;53.518;49.398;2023-05-01T13:24:55;16.25;;;3.70;;
67185;SDS011;54116;53.518;49.398;2023-05-01T13:27:40;18.85;;;4.00;;
67185;SDS011;54116;53.518;49.398;2023-05-01T13:30:11;17.85;;;3.67;;
67185;SDS011;54116;53.518;49.398;2023-05-01T13:32:38;21.98;;;3.47;;
67185;SDS011;54116;53.518;49.398;2023-05-01T13:35:24;17.90;;;4.95;;
67185;SDS011;54116;53.518;49.398;2023-05-01T13:37:51;19.25;;;3.22;;
67185;SDS011;54116;53.518;49.398;2023-05-01T13:40:18;15.75;;;4.47;;
67185;SDS011;54116;53.518;49.398;2023-05-01T13:42:50;29.95;;;13.13;;
67185;SDS011;54116;53.518;49.398;2023-05-01T13:45:18;33.33;;;12.30;;
67185;SDS011;54116;53.518;49.398;2023-05-01T13:47:50;25.30;;;7.60;;
67185;SDS011;54116;53.518;49.398;2023-05-01T13:50:16;23.52;;;5.25;;
67185;SDS011;54116;53.518;49.398;2023-05-01T13:52:43;23.40;;;4.47;;
67185;SDS011;54116;53.518;49.398;2023-05-01T13:55:10;18.13;;;4.22;;
67185;SDS011;54116;53.518;49.398;2023-05-01T13:57:37;15.60;;;3.90;;
67185;SDS011;54116;53.518;49.398;2023-05-01T14:00:22;14.30;;;3.25;;
67185;SDS011;54116;53.518;49.398;2023-05-01T14:02:50;16.30;;;3.13;;
67185;SDS011;54116;53.518;49.398;2023-05-01T14:05:21;17.40;;;4.10;;
67185;SDS011;54116;53.518;49.398;2023-05-01T14:07:57;22.05;;;3.45;;
67185;SDS011;54116;53.518;49.398;2023-05-01T14:10:25;17.10;;;3.17;;
67185;SDS011;54116;53.518;49.398;2023-05-01T14:12:58;23.10;;;3.78;;
67185;SDS011;54116;53.518;49.398;2023-05-01T14:15:25;20.25;;;4.35;;
67185;SDS011;54116;53.518;49.398;2023-05-01T14:17:52;17.88;;;3.33;;
67185;SDS011;54116;53.518;49.398;2023-05-01T14:20:18;20.77;;;3.83;;
67185;SDS011;54116;53.518;49.398;2023-05-01T14:22:48;19.50;;;3.50;;
67185;SDS011;54116;53.518;49.398;2023-05-01T14:25:25;21.73;;;3.92;;
67185;SDS011;54116;53.518;49.398;2023-05-01T14:27:57;19.02;;;3.83;;
67185;SDS011;54116;53.518;49.398;2023-05-01T14:33:00;20.33;;;3.58;;
67185;SDS011;54116;53.518;49.398;2023-05-01T14:35:27;13.25;;;3.22;;
67185;SDS011;54116;53.518;49.398;2023-05-01T14:37:54;19.98;;;3.10;;
67185;SDS011;54116;53.518;49.398;2023-05-01T14:40:26;16.00;;;3.55;;
67185;SDS011;54116;53.518;49.398;2023-05-01T14:42:53;14.63;;;3.25;;
67185;SDS011;54116;53.518;49.398;2023-05-01T14:48:10;24.90;;;3.40;;
67185;SDS011;54116;53.518;49.398;2023-05-01T14:53:14;21.33;;;3.85;;
67185;SDS011;54116;53.518;49.398;2023-05-01T14:55:40;14.23;;;3.40;;
67185;SDS011;54116;53.518;49.398;2023-05-01T14:58:44;16.80;;;3.40;;
67185;SDS011;54116;53.518;49.398;2023-05-01T15:01:12;15.85;;;3.42;;
67185;SDS011;54116;53.518;49.398;2023-05-01T15:06:24;13.95;;;3.20;;
67185;SDS011;54116;53.518;49.398;2023-05-01T15:08:51;16.05;;;3.38;;
67185;SDS011;54116;53.518;49.398;2023-05-01T15:11:18;14.65;;;3.88;;
67185;SDS011;54116;53.518;49.398;2023-05-01T15:13:45;15.02;;;4.00;;
67185;SDS011;54116;53.518;49.398;2023-05-01T15:16:13;15.85;;;3.83;;
67185;SDS011;54116;53.518;49.398;2023-05-01T15:18:40;18.17;;;4.68;;
67185;SDS011;54116;53.518;49.398;2023-05-01T15:21:06;16.52;;;3.95;;
67185;SDS011;54116;53.518;49.398;2023-05-01T15:23:33;15.27;;;3.88;;
67185;SDS011;54116;53.518;49.398;2023-05-01T15:25:59;21.02;;;3.83;;
67185;SDS011;54116;53.518;49.398;2023-05-01T15:28:43;13.90;;;3.08;;
67185;SDS011;54116;53.518;49.398;2023-05-01T15:31:28;14.63;;;3.92;;
67185;SDS011;54116;53.518;49.398;2023-05-01T15:33:55;14.27;;;3.13;;
67185;SDS011;54116;53.518;49.398;2023-05-01T15:36:22;17.90;;;5.70;;
67185;SDS011;54116;53.518;49.398;2023-05-01T15:39:06;18.70;;;5.72;;
67185;SDS011;54116;53.518;49.398;2023-05-01T15:41:36;16.42;;;4.82;;
67185;SDS011;54116;53.518;49.398;2023-05-01T15:44:21;11.32;;;3.67;;
67185;SDS011;54116;53.518;49.398;2023-05-01T15:46:47;16.27;;;3.75;;
67185;SDS011;54116;53.518;49.398;2023-05-01T15:49:13;17.10;;;4.30;;
67185;SDS011;54116;53.518;49.398;2023-05-01T15:51:58;14.27;;;4.97;;
67185;SDS011;54116;53.518;49.398;2023-05-01T15:54:24;24.20;;;6.93;;
67185;SDS011;54116;53.518;49.398;2023-05-01T15:56:52;21.38;;;5.65;;
67185;SDS011;54116;53.518;49.398;2023-05-01T15:59:18;16.17;;;5.03;;
67185;SDS011;54116;53.518;49.398;2023-05-01T16:04:28;13.73;;;3.40;;
67185;SDS011;54116;53.518;49.398;2023-05-01T16:06:54;15.30;;;2.85;;